sensor_id;sensor_type;location;lat;lon;timestamp;pressure;altitude;pressure_sealevel;temperature;humidity
10948;BME280;5526;42.070;24.752;2022-08-21T00:01:16;98313.22;;;22.02;100.00
10948;BME280;5526;42.070;24.752;2022-08-21T00:03:43;98308.06;;;22.09;100.00
10948;BME280;5526;42.070;24.752;2022-08-21T00:06:10;98300.34;;;22.08;100.00
10948;BME280;5526;42.070;24.752;2022-08-21T00:08:37;98301.13;;;22.08;100.00
10948;BME280;5526;42.070;24.752;2022-08-21T00:11:06;98302.16;;;22.19;100.00
10948;BME280;5526;42.070;24.752;2022-08-21T00:13:34;98295.06;;;22.11;100.00
10948;BME280;5526;42.070;24.752;2022-08-21T00:16:02;98296.03;;;21.88;100.00
10948;BME280;5526;42.070;24.752;2022-08-21T00:18:31;98295.03;;;21.80;100.00
10948;BME280;5526;42.070;24.752;2022-08-21T00:20:58;98297.97;;;21.91;100.00
10948;BME280;5526;42.070;24.752;2022-08-21T00:23:25;98287.91;;;22.00;100.00
10948;BME280;5526;42.070;24.752;2022-08-21T00:25:52;98288.50;;;22.09;100.00
10948;BME280;5526;42.070;24.752;2022-08-21T00:28:19;98291.44;;;22.19;100.00
10948;BME280;5526;42.070;24.752;2022-08-21T00:30:46;98305.03;;;22.26;100.00
10948;BME280;5526;42.070;24.752;2022-08-21T00:33:13;98305.38;;;22.25;100.00
10948;BME280;5526;42.070;24.752;2022-08-21T00:35:42;98285.75;;;22.21;100.00
10948;BME280;5526;42.070;24.752;2022-08-21T00:38:10;98287.75;;;22.24;100.00
10948;BME280;5526;42.070;24.752;2022-08-21T00:40:40;98285.41;;;22.22;100.00
10948;BME280;5526;42.070;24.752;2022-08-21T00:43:09;98260.16;;;22.23;100.00
10948;BME280;5526;42.070;24.752;2022-08-21T00:45:37;98254.88;;;22.27;100.00
10948;BME280;5526;42.070;24.752;2022-08-21T00:48:04;98261.88;;;22.31;100.00
10948;BME280;5526;42.070;24.752;2022-08-21T00:50:33;98266.97;;;22.36;100.00
10948;BME280;5526;42.070;24.752;2022-08-21T00:53:05;98269.63;;;22.36;100.00
10948;BME280;5526;42.070;24.752;2022-08-21T00:55:33;98268.53;;;22.37;100.00
10948;BME280;5526;42.070;24.752;2022-08-21T00:58:06;98264.28;;;22.36;100.00
10948;BME280;5526;42.070;24.752;2022-08-21T01:00:37;98276.13;;;22.35;100.00
10948;BME280;5526;42.070;24.752;2022-08-21T01:03:08;98277.44;;;22.41;100.00
10948;BME280;5526;42.070;24.752;2022-08-21T01:05:36;98273.56;;;22.39;100.00
10948;BME280;5526;42.070;24.752;2022-08-21T01:08:06;98268.78;;;22.32;100.00
10948;BME280;5526;42.070;24.752;2022-08-21T01:10:34;98265.44;;;22.20;100.00
10948;BME280;5526;42.070;24.752;2022-08-21T01:13:03;98251.34;;;22.07;100.00
10948;BME280;5526;42.070;24.752;2022-08-21T01:15:35;98256.28;;;22.05;100.00
10948;BME280;5526;42.070;24.752;2022-08-21T01:18:02;98254.97;;;21.99;100.00
10948;BME280;5526;42.070;24.752;2022-08-21T01:20:30;98250.56;;;21.91;100.00
10948;BME280;5526;42.070;24.752;2022-08-21T01:22:58;98244.75;;;21.89;100.00
10948;BME280;5526;42.070;24.752;2022-08-21T01:25:25;98242.00;;;22.01;100.00
10948;BME280;5526;42.070;24.752;2022-08-21T01:27:52;98241.75;;;22.06;100.00
10948;BME280;5526;42.070;24.752;2022-08-21T01:30:23;98234.47;;;22.07;100.00
10948;BME280;5526;42.070;24.752;2022-08-21T01:32:51;98220.72;;;22.08;100.00
10948;BME280;5526;42.070;24.752;2022-08-21T01:35:19;98226.94;;;22.12;100.00
10948;BME280;5526;42.070;24.752;2022-08-21T01:37:48;98222.88;;;22.18;100.00
10948;BME280;5526;42.070;24.752;2022-08-21T01:40:18;98210.63;;;22.17;100.00
10948;BME280;5526;42.070;24.752;2022-08-21T01:42:46;98226.06;;;22.08;100.00
10948;BME280;5526;42.070;24.752;2022-08-21T01:45:14;98228.16;;;21.99;100.00
10948;BME280;5526;42.070;24.752;2022-08-21T01:47:42;98236.28;;;21.87;100.00
10948;BME280;5526;42.070;24.752;2022-08-21T01:50:16;98263.50;;;21.89;100.00
10948;BME280;5526;42.070;24.752;2022-08-21T01:52:43;98273.34;;;21.85;100.00
10948;BME280;5526;42.070;24.752;2022-08-21T01:55:11;98275.59;;;21.83;100.00
10948;BME280;5526;42.070;24.752;2022-08-21T01:57:40;98276.19;;;21.77;100.00
10948;BME280;5526;42.070;24.752;2022-08-21T02:00:10;98285.34;;;21.76;100.00
10948;BME280;5526;42.070;24.752;2022-08-21T02:02:38;98281.75;;;21.84;100.00
10948;BME280;5526;42.070;24.752;2022-08-21T02:05:06;98277.50;;;21.83;100.00
10948;BME280;5526;42.070;24.752;2022-08-21T02:07:36;98273.94;;;21.79;100.00
10948;BME280;5526;42.070;24.752;2022-08-21T02:10:05;98271.38;;;21.82;100.00
10948;BME280;5526;42.070;24.752;2022-08-21T02:12:33;98281.38;;;21.85;100.00
10948;BME280;5526;42.070;24.752;2022-08-21T02:15:01;98294.63;;;21.94;100.00
10948;BME280;5526;42.070;24.752;2022-08-21T02:17:37;98302.31;;;21.95;100.00
10948;BME280;5526;42.070;24.752;2022-08-21T02:20:05;98294.88;;;21.89;100.00
10948;BME280;5526;42.070;24.752;2022-08-21T02:22:32;98294.41;;;21.71;100.00
10948;BME280;5526;42.070;24.752;2022-08-21T02:24:59;98298.53;;;21.69;100.00
10948;BME280;5526;42.070;24.752;2022-08-21T02:27:26;98307.94;;;21.63;100.00
10948;BME280;5526;42.070;24.752;2022-08-21T02:29:55;98301.88;;;21.38;100.00
10948;BME280;5526;42.070;24.752;2022-08-21T02:32:23;98314.38;;;21.34;100.00
10948;BME280;5526;42.070;24.752;2022-08-21T02:34:51;98317.88;;;21.23;100.00
10948;BME280;5526;42.070;24.752;2022-08-21T02:37:18;98331.50;;;21.18;100.00
10948;BME280;5526;42.070;24.752;2022-08-21T02:39:45;98333.44;;;21.05;100.00
10948;BME280;5526;42.070;24.752;2022-08-21T02:42:12;98321.75;;;20.98;100.00
10948;BME280;5526;42.070;24.752;2022-08-21T02:44:39;98329.97;;;21.05;100.00
10948;BME280;5526;42.070;24.752;2022-08-21T02:47:06;98328.66;;;20.99;100.00
10948;BME280;5526;42.070;24.752;2022-08-21T02:49:34;98329.88;;;21.01;100.00
10948;BME280;5526;42.070;24.752;2022-08-21T02:52:01;98330.53;;;20.98;100.00
10948;BME280;5526;42.070;24.752;2022-08-21T02:54:30;98322.16;;;21.12;100.00
10948;BME280;5526;42.070;24.752;2022-08-21T02:56:57;98321.78;;;21.25;100.00
10948;BME280;5526;42.070;24.752;2022-08-21T02:59:24;98322.88;;;21.36;100.00
10948;BME280;5526;42.070;24.752;2022-08-21T03:01:51;98328.44;;;21.43;100.00
10948;BME280;5526;42.070;24.752;2022-08-21T03:04:17;98335.34;;;21.44;100.00
10948;BME280;5526;42.070;24.752;2022-08-21T03:06:46;98337.78;;;21.49;100.00
10948;BME280;5526;42.070;24.752;2022-08-21T03:09:13;98337.53;;;21.54;100.00
10948;BME280;5526;42.070;24.752;2022-08-21T03:11:40;98326.59;;;21.59;100.00
10948;BME280;5526;42.070;24.752;2022-08-21T03:14:07;98335.50;;;21.63;100.00
10948;BME280;5526;42.070;24.752;2022-08-21T03:16:34;98338.94;;;21.64;100.00
10948;BME280;5526;42.070;24.752;2022-08-21T03:19:02;98335.91;;;21.77;100.00
10948;BME280;5526;42.070;24.752;2022-08-21T03:21:29;98336.59;;;21.74;100.00
10948;BME280;5526;42.070;24.752;2022-08-21T03:23:57;98338.34;;;21.82;100.00
10948;BME280;5526;42.070;24.752;2022-08-21T03:26:24;98345.69;;;21.85;100.00
10948;BME280;5526;42.070;24.752;2022-08-21T03:28:51;98328.13;;;21.72;100.00
10948;BME280;5526;42.070;24.752;2022-08-21T03:31:18;98342.53;;;21.56;100.00
10948;BME280;5526;42.070;24.752;2022-08-21T03:33:47;98345.56;;;21.54;100.00
10948;BME280;5526;42.070;24.752;2022-08-21T03:36:14;98352.78;;;21.66;100.00
10948;BME280;5526;42.070;24.752;2022-08-21T03:38:42;98344.84;;;21.69;100.00
10948;BME280;5526;42.070;24.752;2022-08-21T03:41:10;98348.88;;;21.75;100.00
10948;BME280;5526;42.070;24.752;2022-08-21T03:43:37;98351.28;;;21.80;100.00
10948;BME280;5526;42.070;24.752;2022-08-21T03:46:05;98343.59;;;21.79;100.00
10948;BME280;5526;42.070;24.752;2022-08-21T03:48:34;98340.25;;;21.82;100.00
10948;BME280;5526;42.070;24.752;2022-08-21T03:51:02;98348.81;;;21.87;100.00
10948;BME280;5526;42.070;24.752;2022-08-21T03:53:29;98348.13;;;21.90;100.00
10948;BME280;5526;42.070;24.752;2022-08-21T03:55:56;98355.28;;;21.86;100.00
10948;BME280;5526;42.070;24.752;2022-08-21T03:58:27;98363.34;;;21.86;100.00
10948;BME280;5526;42.070;24.752;2022-08-21T04:00:57;98360.06;;;21.93;100.00
10948;BME280;5526;42.070;24.752;2022-08-21T04:03:25;98361.69;;;21.97;100.00
10948;BME280;5526;42.070;24.752;2022-08-21T04:05:52;98356.34;;;21.97;100.00
10948;BME280;5526;42.070;24.752;2022-08-21T04:08:19;98356.59;;;21.92;100.00
10948;BME280;5526;42.070;24.752;2022-08-21T04:10:50;98356.84;;;21.87;100.00
10948;BME280;5526;42.070;24.752;2022-08-21T04:13:17;98358.75;;;21.87;100.00
10948;BME280;5526;42.070;24.752;2022-08-21T04:15:46;98354.16;;;21.87;100.00
10948;BME280;5526;42.070;24.752;2022-08-21T04:18:13;98349.50;;;21.84;100.00
10948;BME280;5526;42.070;24.752;2022-08-21T04:20:42;98344.59;;;21.86;100.00
10948;BME280;5526;42.070;24.752;2022-08-21T04:23:09;98349.16;;;21.86;100.00
10948;BME280;5526;42.070;24.752;2022-08-21T04:25:36;98357.03;;;21.94;100.00
10948;BME280;5526;42.070;24.752;2022-08-21T04:28:04;98352.78;;;21.93;100.00
10948;BME280;5526;42.070;24.752;2022-08-21T04:30:31;98347.88;;;21.56;100.00
10948;BME280;5526;42.070;24.752;2022-08-21T04:32:59;98343.03;;;21.46;100.00
10948;BME280;5526;42.070;24.752;2022-08-21T04:35:27;98350.72;;;21.47;100.00
10948;BME280;5526;42.070;24.752;2022-08-21T04:37:55;98352.41;;;21.40;100.00
10948;BME280;5526;42.070;24.752;2022-08-21T04:40:25;98339.91;;;21.44;100.00
10948;BME280;5526;42.070;24.752;2022-08-21T04:42:54;98336.00;;;21.41;100.00
10948;BME280;5526;42.070;24.752;2022-08-21T04:45:23;98331.19;;;21.19;100.00
10948;BME280;5526;42.070;24.752;2022-08-21T04:47:52;98329.97;;;21.05;100.00
10948;BME280;5526;42.070;24.752;2022-08-21T04:50:22;98328.97;;;21.09;100.00
10948;BME280;5526;42.070;24.752;2022-08-21T04:52:51;98328.97;;;21.09;100.00
10948;BME280;5526;42.070;24.752;2022-08-21T04:55:19;98333.63;;;21.24;100.00
10948;BME280;5526;42.070;24.752;2022-08-21T04:57:47;98330.25;;;21.27;100.00
10948;BME280;5526;42.070;24.752;2022-08-21T05:00:20;98333.00;;;21.43;100.00
10948;BME280;5526;42.070;24.752;2022-08-21T05:02:47;98331.31;;;21.38;100.00
10948;BME280;5526;42.070;24.752;2022-08-21T05:05:17;98330.34;;;21.31;100.00
10948;BME280;5526;42.070;24.752;2022-08-21T05:07:46;98325.81;;;21.19;100.00
10948;BME280;5526;42.070;24.752;2022-08-21T05:10:14;98319.59;;;21.15;100.00
10948;BME280;5526;42.070;24.752;2022-08-21T05:12:41;98325.38;;;21.17;100.00
10948;BME280;5526;42.070;24.752;2022-08-21T05:15:09;98319.91;;;21.26;100.00
10948;BME280;5526;42.070;24.752;2022-08-21T05:17:37;98318.69;;;21.23;100.00
10948;BME280;5526;42.070;24.752;2022-08-21T05:20:05;98313.63;;;21.34;100.00
10948;BME280;5526;42.070;24.752;2022-08-21T05:22:32;98315.03;;;21.43;100.00
10948;BME280;5526;42.070;24.752;2022-08-21T05:25:00;98315.00;;;21.55;100.00
10948;BME280;5526;42.070;24.752;2022-08-21T05:27:27;98313.19;;;21.59;100.00
10948;BME280;5526;42.070;24.752;2022-08-21T05:29:55;98325.31;;;21.69;100.00
10948;BME280;5526;42.070;24.752;2022-08-21T05:32:22;98313.72;;;21.77;100.00
10948;BME280;5526;42.070;24.752;2022-08-21T05:34:49;98328.06;;;21.84;100.00
10948;BME280;5526;42.070;24.752;2022-08-21T05:37:17;98327.13;;;21.92;100.00
10948;BME280;5526;42.070;24.752;2022-08-21T05:39:43;98318.41;;;21.95;100.00
10948;BME280;5526;42.070;24.752;2022-08-21T05:42:12;98316.25;;;22.01;100.00
10948;BME280;5526;42.070;24.752;2022-08-21T05:44:39;98325.09;;;22.01;100.00
10948;BME280;5526;42.070;24.752;2022-08-21T05:47:07;98324.03;;;22.06;100.00
10948;BME280;5526;42.070;24.752;2022-08-21T05:49:35;98326.81;;;22.09;100.00
10948;BME280;5526;42.070;24.752;2022-08-21T05:52:03;98325.34;;;22.12;100.00
10948;BME280;5526;42.070;24.752;2022-08-21T05:54:30;98329.50;;;22.09;100.00
10948;BME280;5526;42.070;24.752;2022-08-21T05:56:57;98339.16;;;21.98;100.00
10948;BME280;5526;42.070;24.752;2022-08-21T05:59:26;98340.91;;;22.06;100.00
10948;BME280;5526;42.070;24.752;2022-08-21T06:01:53;98346.34;;;22.10;100.00
10948;BME280;5526;42.070;24.752;2022-08-21T06:04:20;98353.88;;;22.20;100.00
10948;BME280;5526;42.070;24.752;2022-08-21T06:06:47;98352.06;;;22.24;100.00
10948;BME280;5526;42.070;24.752;2022-08-21T06:09:14;98352.69;;;22.17;100.00
10948;BME280;5526;42.070;24.752;2022-08-21T06:11:41;98350.00;;;22.17;100.00
10948;BME280;5526;42.070;24.752;2022-08-21T06:14:08;98352.06;;;22.24;100.00
10948;BME280;5526;42.070;24.752;2022-08-21T06:16:36;98349.22;;;22.32;100.00
10948;BME280;5526;42.070;24.752;2022-08-21T06:19:03;98358.56;;;22.38;100.00
10948;BME280;5526;42.070;24.752;2022-08-21T06:21:30;98365.25;;;22.44;100.00
10948;BME280;5526;42.070;24.752;2022-08-21T06:23:57;98357.31;;;22.48;100.00
10948;BME280;5526;42.070;24.752;2022-08-21T06:26:24;98359.00;;;22.40;100.00
10948;BME280;5526;42.070;24.752;2022-08-21T06:28:51;98349.50;;;22.43;100.00
10948;BME280;5526;42.070;24.752;2022-08-21T06:31:21;98343.56;;;22.49;100.00
10948;BME280;5526;42.070;24.752;2022-08-21T06:33:51;98343.72;;;22.56;100.00
10948;BME280;5526;42.070;24.752;2022-08-21T06:36:18;98341.97;;;22.64;100.00
10948;BME280;5526;42.070;24.752;2022-08-21T06:38:46;98336.88;;;22.74;100.00
10948;BME280;5526;42.070;24.752;2022-08-21T06:41:13;98347.16;;;22.88;100.00
10948;BME280;5526;42.070;24.752;2022-08-21T06:43:40;98337.53;;;22.87;100.00
10948;BME280;5526;42.070;24.752;2022-08-21T06:46:07;98332.13;;;23.02;100.00
10948;BME280;5526;42.070;24.752;2022-08-21T06:48:34;98324.94;;;23.06;100.00
10948;BME280;5526;42.070;24.752;2022-08-21T06:51:03;98319.81;;;23.17;100.00
10948;BME280;5526;42.070;24.752;2022-08-21T06:53:30;98318.09;;;23.09;100.00
10948;BME280;5526;42.070;24.752;2022-08-21T06:55:58;98311.16;;;23.08;100.00
10948;BME280;5526;42.070;24.752;2022-08-21T06:58:25;98309.63;;;23.07;100.00
10948;BME280;5526;42.070;24.752;2022-08-21T07:00:52;98315.34;;;23.05;100.00
10948;BME280;5526;42.070;24.752;2022-08-21T07:03:22;98323.44;;;23.24;100.00
10948;BME280;5526;42.070;24.752;2022-08-21T07:05:50;98317.03;;;23.29;100.00
10948;BME280;5526;42.070;24.752;2022-08-21T07:08:18;98316.75;;;23.18;100.00
10948;BME280;5526;42.070;24.752;2022-08-21T07:10:46;98316.75;;;22.99;100.00
10948;BME280;5526;42.070;24.752;2022-08-21T07:15:40;98322.06;;;23.15;100.00
10948;BME280;5526;42.070;24.752;2022-08-21T07:18:07;98319.84;;;23.36;100.00
10948;BME280;5526;42.070;24.752;2022-08-21T07:20:34;98313.41;;;23.21;100.00
10948;BME280;5526;42.070;24.752;2022-08-21T07:23:06;98308.19;;;23.28;100.00
10948;BME280;5526;42.070;24.752;2022-08-21T07:25:35;98308.75;;;23.37;100.00
10948;BME280;5526;42.070;24.752;2022-08-21T07:28:03;98316.09;;;23.59;100.00
10948;BME280;5526;42.070;24.752;2022-08-21T07:30:31;98314.91;;;23.76;100.00
10948;BME280;5526;42.070;24.752;2022-08-21T07:32:58;98315.00;;;23.83;100.00
10948;BME280;5526;42.070;24.752;2022-08-21T07:35:25;98316.16;;;24.01;100.00
10948;BME280;5526;42.070;24.752;2022-08-21T07:37:53;98313.28;;;24.13;100.00
10948;BME280;5526;42.070;24.752;2022-08-21T07:40:20;98309.09;;;24.15;100.00
10948;BME280;5526;42.070;24.752;2022-08-21T07:42:49;98307.03;;;24.05;100.00
10948;BME280;5526;42.070;24.752;2022-08-21T07:45:18;98309.72;;;24.05;100.00
10948;BME280;5526;42.070;24.752;2022-08-21T07:47:46;98303.75;;;23.96;100.00
10948;BME280;5526;42.070;24.752;2022-08-21T07:50:13;98301.56;;;24.02;100.00
10948;BME280;5526;42.070;24.752;2022-08-21T07:52:40;98303.41;;;23.79;100.00
10948;BME280;5526;42.070;24.752;2022-08-21T07:55:09;98308.03;;;23.78;100.00
10948;BME280;5526;42.070;24.752;2022-08-21T07:57:36;98312.38;;;23.64;100.00
10948;BME280;5526;42.070;24.752;2022-08-21T08:00:08;98314.63;;;23.43;100.00
10948;BME280;5526;42.070;24.752;2022-08-21T08:02:36;98314.97;;;23.60;100.00
10948;BME280;5526;42.070;24.752;2022-08-21T08:05:04;98312.88;;;23.50;100.00
10948;BME280;5526;42.070;24.752;2022-08-21T08:07:32;98302.63;;;23.37;100.00
10948;BME280;5526;42.070;24.752;2022-08-21T08:09:59;98308.63;;;23.30;100.00
10948;BME280;5526;42.070;24.752;2022-08-21T08:12:27;98303.38;;;23.37;100.00
10948;BME280;5526;42.070;24.752;2022-08-21T08:14:55;98308.34;;;23.73;100.00
10948;BME280;5526;42.070;24.752;2022-08-21T08:17:24;98301.81;;;23.74;100.00
10948;BME280;5526;42.070;24.752;2022-08-21T08:19:51;98309.00;;;23.89;100.00
10948;BME280;5526;42.070;24.752;2022-08-21T08:22:21;98299.84;;;23.71;100.00
10948;BME280;5526;42.070;24.752;2022-08-21T08:24:50;98302.94;;;23.92;100.00
10948;BME280;5526;42.070;24.752;2022-08-21T08:27:18;98300.28;;;23.73;100.00
10948;BME280;5526;42.070;24.752;2022-08-21T08:29:45;98303.91;;;23.84;100.00
10948;BME280;5526;42.070;24.752;2022-08-21T08:32:12;98298.88;;;23.83;100.00
10948;BME280;5526;42.070;24.752;2022-08-21T08:34:41;98296.78;;;23.73;100.00
10948;BME280;5526;42.070;24.752;2022-08-21T08:37:09;98293.19;;;23.65;100.00
10948;BME280;5526;42.070;24.752;2022-08-21T08:39:36;98291.81;;;23.75;100.00
10948;BME280;5526;42.070;24.752;2022-08-21T08:42:07;98284.19;;;23.77;100.00
10948;BME280;5526;42.070;24.752;2022-08-21T08:44:36;98276.72;;;23.67;100.00
10948;BME280;5526;42.070;24.752;2022-08-21T08:47:04;98286.16;;;23.99;100.00
10948;BME280;5526;42.070;24.752;2022-08-21T08:49:36;98274.31;;;24.03;100.00
10948;BME280;5526;42.070;24.752;2022-08-21T08:52:11;98273.13;;;24.01;100.00
10948;BME280;5526;42.070;24.752;2022-08-21T08:54:45;98270.16;;;24.28;100.00
10948;BME280;5526;42.070;24.752;2022-08-21T08:57:16;98267.97;;;24.37;100.00
10948;BME280;5526;42.070;24.752;2022-08-21T08:59:46;98271.47;;;24.38;100.00
10948;BME280;5526;42.070;24.752;2022-08-21T09:02:16;98268.38;;;24.39;100.00
10948;BME280;5526;42.070;24.752;2022-08-21T09:04:45;98269.88;;;24.60;100.00
10948;BME280;5526;42.070;24.752;2022-08-21T09:07:21;98267.47;;;24.54;100.00
10948;BME280;5526;42.070;24.752;2022-08-21T09:10:08;98267.06;;;24.52;100.00
10948;BME280;5526;42.070;24.752;2022-08-21T09:12:46;98273.25;;;24.79;100.00
10948;BME280;5526;42.070;24.752;2022-08-21T09:15:22;98268.13;;;25.00;100.00
10948;BME280;5526;42.070;24.752;2022-08-21T09:18:13;98271.81;;;24.85;100.00
10948;BME280;5526;42.070;24.752;2022-08-21T09:20:57;98271.50;;;24.94;100.00
10948;BME280;5526;42.070;24.752;2022-08-21T09:23:33;98263.19;;;25.02;100.00
10948;BME280;5526;42.070;24.752;2022-08-21T09:26:12;98259.69;;;25.02;100.00
10948;BME280;5526;42.070;24.752;2022-08-21T09:28:39;98256.47;;;25.19;100.00
10948;BME280;5526;42.070;24.752;2022-08-21T09:31:08;98251.53;;;25.54;100.00
10948;BME280;5526;42.070;24.752;2022-08-21T09:33:37;98251.75;;;25.78;100.00
10948;BME280;5526;42.070;24.752;2022-08-21T09:36:05;98250.44;;;25.62;100.00
10948;BME280;5526;42.070;24.752;2022-08-21T09:38:36;98244.69;;;25.63;100.00
10948;BME280;5526;42.070;24.752;2022-08-21T09:41:05;98242.03;;;25.70;99.55
10948;BME280;5526;42.070;24.752;2022-08-21T09:43:33;98247.13;;;25.75;98.85
10948;BME280;5526;42.070;24.752;2022-08-21T09:46:06;98252.72;;;25.96;98.60
10948;BME280;5526;42.070;24.752;2022-08-21T09:48:44;98252.56;;;25.82;95.80
10948;BME280;5526;42.070;24.752;2022-08-21T09:51:14;98246.78;;;25.84;96.88
10948;BME280;5526;42.070;24.752;2022-08-21T09:53:46;98253.16;;;26.02;95.83
10948;BME280;5526;42.070;24.752;2022-08-21T09:56:21;98254.63;;;25.96;94.73
10948;BME280;5526;42.070;24.752;2022-08-21T09:59:18;98258.72;;;25.83;96.30
10948;BME280;5526;42.070;24.752;2022-08-21T10:01:47;98265.13;;;26.04;95.30
10948;BME280;5526;42.070;24.752;2022-08-21T10:04:20;98254.16;;;25.90;94.24
10948;BME280;5526;42.070;24.752;2022-08-21T10:06:47;98259.38;;;25.73;97.18
10948;BME280;5526;42.070;24.752;2022-08-21T10:09:18;98252.81;;;25.70;97.18
10948;BME280;5526;42.070;24.752;2022-08-21T10:11:51;98257.28;;;25.56;96.99
10948;BME280;5526;42.070;24.752;2022-08-21T10:14:31;98261.69;;;25.38;98.15
10948;BME280;5526;42.070;24.752;2022-08-21T10:17:10;98259.50;;;25.47;99.70
10948;BME280;5526;42.070;24.752;2022-08-21T10:19:43;98254.44;;;25.12;100.00
10948;BME280;5526;42.070;24.752;2022-08-21T10:22:25;98249.81;;;25.09;100.00
10948;BME280;5526;42.070;24.752;2022-08-21T10:25:05;98256.47;;;25.19;100.00
10948;BME280;5526;42.070;24.752;2022-08-21T10:27:39;98255.34;;;24.94;100.00
10948;BME280;5526;42.070;24.752;2022-08-21T10:30:13;98243.31;;;24.84;100.00
10948;BME280;5526;42.070;24.752;2022-08-21T10:32:57;98252.44;;;24.76;100.00
10948;BME280;5526;42.070;24.752;2022-08-21T10:35:31;98250.81;;;24.45;100.00
10948;BME280;5526;42.070;24.752;2022-08-21T10:38:11;98248.84;;;24.42;100.00
10948;BME280;5526;42.070;24.752;2022-08-21T10:40:52;98257.41;;;24.25;100.00
10948;BME280;5526;42.070;24.752;2022-08-21T10:43:30;98258.59;;;24.28;100.00
10948;BME280;5526;42.070;24.752;2022-08-21T10:46:08;98249.81;;;24.08;100.00
10948;BME280;5526;42.070;24.752;2022-08-21T10:48:42;98254.41;;;24.30;100.00
10948;BME280;5526;42.070;24.752;2022-08-21T10:51:17;98252.50;;;24.57;100.00
10948;BME280;5526;42.070;24.752;2022-08-21T10:54:00;98258.53;;;24.47;100.00
10948;BME280;5526;42.070;24.752;2022-08-21T10:56:34;98258.75;;;24.61;100.00
10948;BME280;5526;42.070;24.752;2022-08-21T10:59:20;98260.41;;;24.69;100.00
10948;BME280;5526;42.070;24.752;2022-08-21T11:01:54;98271.75;;;24.82;100.00
10948;BME280;5526;42.070;24.752;2022-08-21T11:04:28;98263.69;;;24.59;100.00
10948;BME280;5526;42.070;24.752;2022-08-21T11:07:02;98261.44;;;24.61;100.00
10948;BME280;5526;42.070;24.752;2022-08-21T11:09:30;98264.66;;;24.47;100.00
10948;BME280;5526;42.070;24.752;2022-08-21T11:12:05;98258.59;;;24.28;100.00
10948;BME280;5526;42.070;24.752;2022-08-21T11:14:39;98255.47;;;24.48;100.00
10948;BME280;5526;42.070;24.752;2022-08-21T11:17:10;98255.56;;;24.29;100.00
10948;BME280;5526;42.070;24.752;2022-08-21T11:19:43;98254.72;;;24.25;100.00
10948;BME280;5526;42.070;24.752;2022-08-21T11:22:15;98253.47;;;24.42;100.00
10948;BME280;5526;42.070;24.752;2022-08-21T11:24:50;98254.81;;;24.55;100.00
10948;BME280;5526;42.070;24.752;2022-08-21T11:27:26;98251.41;;;24.35;100.00
10948;BME280;5526;42.070;24.752;2022-08-21T11:29:56;98248.47;;;24.44;100.00
10948;BME280;5526;42.070;24.752;2022-08-21T11:32:36;98248.69;;;24.84;100.00
10948;BME280;5526;42.070;24.752;2022-08-21T11:35:11;98248.53;;;25.00;100.00
10948;BME280;5526;42.070;24.752;2022-08-21T11:37:51;98243.88;;;24.71;100.00
10948;BME280;5526;42.070;24.752;2022-08-21T11:40:37;98251.63;;;24.49;100.00
10948;BME280;5526;42.070;24.752;2022-08-21T11:43:14;98243.78;;;24.37;100.00
10948;BME280;5526;42.070;24.752;2022-08-21T11:45:45;98241.47;;;24.39;100.00
10948;BME280;5526;42.070;24.752;2022-08-21T11:48:36;98243.06;;;24.40;100.00
10948;BME280;5526;42.070;24.752;2022-08-21T11:51:08;98239.34;;;24.75;100.00
10948;BME280;5526;42.070;24.752;2022-08-21T11:53:39;98243.59;;;24.76;100.00
10948;BME280;5526;42.070;24.752;2022-08-21T11:56:14;98242.16;;;24.59;100.00
10948;BME280;5526;42.070;24.752;2022-08-21T11:58:48;98240.16;;;24.52;100.00
10948;BME280;5526;42.070;24.752;2022-08-21T12:01:18;98236.03;;;24.85;100.00
10948;BME280;5526;42.070;24.752;2022-08-21T12:03:53;98229.31;;;25.01;100.00
10948;BME280;5526;42.070;24.752;2022-08-21T12:06:30;98219.75;;;25.07;100.00
10948;BME280;5526;42.070;24.752;2022-08-21T12:08:59;98225.84;;;25.01;100.00
10948;BME280;5526;42.070;24.752;2022-08-21T12:11:26;98217.19;;;25.18;100.00
10948;BME280;5526;42.070;24.752;2022-08-21T12:13:58;98212.94;;;25.13;100.00
10948;BME280;5526;42.070;24.752;2022-08-21T12:16:31;98213.03;;;25.24;100.00
10948;BME280;5526;42.070;24.752;2022-08-21T12:19:03;98213.47;;;24.96;100.00
10948;BME280;5526;42.070;24.752;2022-08-21T12:21:31;98214.59;;;24.92;100.00
10948;BME280;5526;42.070;24.752;2022-08-21T12:24:05;98207.44;;;25.06;100.00
10948;BME280;5526;42.070;24.752;2022-08-21T12:26:48;98207.25;;;24.92;100.00
10948;BME280;5526;42.070;24.752;2022-08-21T12:29:23;98209.81;;;24.82;100.00
10948;BME280;5526;42.070;24.752;2022-08-21T12:31:58;98205.25;;;24.86;100.00
10948;BME280;5526;42.070;24.752;2022-08-21T12:34:32;98198.97;;;24.75;100.00
10948;BME280;5526;42.070;24.752;2022-08-21T12:37:04;98192.56;;;24.57;100.00
10948;BME280;5526;42.070;24.752;2022-08-21T12:39:33;98191.44;;;24.87;100.00
10948;BME280;5526;42.070;24.752;2022-08-21T12:42:06;98200.06;;;25.00;100.00
10948;BME280;5526;42.070;24.752;2022-08-21T12:44:43;98192.84;;;25.07;100.00
10948;BME280;5526;42.070;24.752;2022-08-21T12:47:19;98184.06;;;24.81;100.00
10948;BME280;5526;42.070;24.752;2022-08-21T12:49:54;98175.03;;;24.99;100.00
10948;BME280;5526;42.070;24.752;2022-08-21T12:52:28;98180.22;;;24.82;100.00
10948;BME280;5526;42.070;24.752;2022-08-21T12:54:56;98171.53;;;24.62;100.00
10948;BME280;5526;42.070;24.752;2022-08-21T12:57:25;98168.03;;;24.62;100.00
10948;BME280;5526;42.070;24.752;2022-08-21T12:59:56;98160.78;;;24.66;100.00
10948;BME280;5526;42.070;24.752;2022-08-21T13:02:26;98164.53;;;24.87;100.00
10948;BME280;5526;42.070;24.752;2022-08-21T13:04:55;98157.00;;;25.03;100.00
10948;BME280;5526;42.070;24.752;2022-08-21T13:07:27;98165.25;;;25.17;100.00